Terminal Aerodrome Forecast
Issued by NWS Brownsville, TX

Home | Current Version | Previous Version | Text Only | Print | Product List | Glossary On
Versions: 1 2 3 4 5 6 7 8 9 10 11 12 13 14 15 16 17 18 19 20 21
000
FTUS44 KBRO 301300 AAA
TAFHRL
TAF AMD
KHRL 301305Z 3013/0112 00000KT 1SM BR VV001
      TEMPO 3013/3014 1/2SM FG
     FM301400 VRB05KT P6SM VCSH SCT015 BKN025
     FM301800 13008KT P6SM SCT025 BKN050
     FM010000 15005KT P6SM FEW250=

USA.gov is the U.S. government's official web portal to all federal, state and local government web resources and services.